createdAt,value
2018-08-31T00:01:24.647Z,2.03
2018-08-31T00:03:51.854Z,2.60
2018-08-31T00:09:11.558Z,2.80
2018-08-31T00:11:38.292Z,2.23
2018-08-31T00:14:04.972Z,2.50
2018-08-31T00:16:31.746Z,2.90
2018-08-31T00:18:58.382Z,3.53
2018-08-31T00:21:25.065Z,3.53
2018-08-31T00:23:51.993Z,4.30
2018-08-31T00:26:31.652Z,3.83
2018-08-31T00:29:10.658Z,4.27
2018-08-31T00:31:50.275Z,3.83
2018-08-31T00:34:17.050Z,4.07
2018-08-31T00:36:43.725Z,3.97
2018-08-31T00:39:10.384Z,3.97
2018-08-31T00:41:37.095Z,3.90
2018-08-31T00:44:03.804Z,4.30
2018-08-31T00:46:31.308Z,4.00
2018-08-31T00:48:57.959Z,4.00
2018-08-31T00:51:24.619Z,4.13
2018-08-31T00:53:51.378Z,3.80
2018-08-31T00:56:18.033Z,3.63
2018-08-31T00:58:44.701Z,4.10
2018-08-31T01:01:11.354Z,3.87
2018-08-31T01:03:38.899Z,3.83
2018-08-31T01:06:05.604Z,3.50
2018-08-31T01:08:32.313Z,3.90
2018-08-31T01:10:59.015Z,3.53
2018-08-31T01:13:25.795Z,4.03
2018-08-31T01:15:53.176Z,3.50
2018-08-31T01:18:19.822Z,3.93
2018-08-31T01:20:46.554Z,3.40
2018-08-31T01:23:13.229Z,3.70
2018-08-31T01:25:39.934Z,4.03
2018-08-31T01:28:06.587Z,3.63
2018-08-31T01:30:33.274Z,3.30
2018-08-31T01:33:00.698Z,3.27
2018-08-31T01:35:27.393Z,3.80
2018-08-31T01:37:54.891Z,3.00
2018-08-31T01:40:21.624Z,3.50
2018-08-31T01:42:48.359Z,3.40
2018-08-31T01:45:15.053Z,3.50
2018-08-31T01:47:41.726Z,3.53
2018-08-31T01:50:08.432Z,3.40
2018-08-31T01:52:35.855Z,3.37
2018-08-31T01:55:02.639Z,3.30
2018-08-31T01:57:30.042Z,3.53
2018-08-31T01:59:56.679Z,4.17
2018-08-31T02:02:23.397Z,3.70
2018-08-31T02:05:04.931Z,4.20
2018-08-31T02:07:31.745Z,3.67
2018-08-31T02:09:58.430Z,3.87
2018-08-31T02:12:25.116Z,4.07
2018-08-31T02:14:51.907Z,3.63
2018-08-31T02:17:18.601Z,4.20
2018-08-31T02:19:46.153Z,4.20
2018-08-31T02:22:12.800Z,4.00
2018-08-31T02:24:39.459Z,4.20
2018-08-31T02:27:06.134Z,4.13
2018-08-31T02:29:33.542Z,4.40
2018-08-31T02:32:00.216Z,4.47
2018-08-31T02:34:27.655Z,3.87
2018-08-31T02:36:54.329Z,4.17
2018-08-31T02:39:21.853Z,4.73
2018-08-31T02:41:48.514Z,5.00
2018-08-31T02:44:15.165Z,4.60
2018-08-31T02:46:42.545Z,4.97
2018-08-31T02:49:09.248Z,4.87
2018-08-31T02:51:35.901Z,4.77
2018-08-31T02:54:03.356Z,5.00
2018-08-31T02:56:30.107Z,5.10
2018-08-31T02:58:56.840Z,4.83
2018-08-31T03:01:24.377Z,5.00
2018-08-31T03:03:51.051Z,4.77
2018-08-31T03:06:17.738Z,5.00
2018-08-31T03:08:44.563Z,4.60
2018-08-31T03:11:11.176Z,4.77
2018-08-31T03:13:37.825Z,5.47
2018-08-31T03:16:04.643Z,5.13
2018-08-31T03:18:32.059Z,5.27
2018-08-31T03:20:59.320Z,5.83
2018-08-31T03:23:26.014Z,5.30
2018-08-31T03:25:52.673Z,5.17
2018-08-31T03:28:19.336Z,5.43
2018-08-31T03:30:46.019Z,6.50
2018-08-31T03:33:12.700Z,6.37
2018-08-31T03:35:39.377Z,5.67
2018-08-31T03:38:06.840Z,6.20
2018-08-31T03:40:33.587Z,5.77
2018-08-31T03:43:00.335Z,5.80
2018-08-31T03:45:27.009Z,6.63
2018-08-31T03:47:53.712Z,5.40
2018-08-31T03:50:20.420Z,5.67
2018-08-31T03:52:47.089Z,5.80
2018-08-31T03:55:14.554Z,5.87
2018-08-31T03:57:41.339Z,6.63
2018-08-31T04:00:08.012Z,5.20
2018-08-31T04:02:34.741Z,6.77
2018-08-31T04:05:01.417Z,6.07
2018-08-31T04:07:28.093Z,6.70
2018-08-31T04:09:54.804Z,6.57
2018-08-31T04:12:21.508Z,6.30
2018-08-31T04:14:48.915Z,7.63
2018-08-31T04:17:15.737Z,7.37
2018-08-31T04:19:42.351Z,6.93
2018-08-31T04:22:09.001Z,6.20
2018-08-31T04:24:35.690Z,6.60
2018-08-31T04:27:03.122Z,7.50
2018-08-31T04:29:29.868Z,6.50
2018-08-31T04:31:56.555Z,6.40
2018-08-31T04:34:24.017Z,6.37
2018-08-31T04:36:50.740Z,5.77
2018-08-31T04:39:18.143Z,5.67
2018-08-31T04:41:44.800Z,6.87
2018-08-31T04:44:11.593Z,5.70
2018-08-31T04:46:39.028Z,5.47
2018-08-31T04:49:05.707Z,5.57
2018-08-31T04:51:32.372Z,5.70
2018-08-31T04:53:59.070Z,5.40
2018-08-31T04:56:26.590Z,4.33
2018-08-31T04:58:53.325Z,4.33
2018-08-31T05:01:20.021Z,3.80
2018-08-31T05:03:46.874Z,3.63
2018-08-31T05:06:13.501Z,3.43
2018-08-31T05:08:40.162Z,2.77
2018-08-31T05:11:06.911Z,2.70
2018-08-31T05:13:33.622Z,2.17
2018-08-31T05:16:00.870Z,2.30
2018-08-31T05:18:27.873Z,2.00
2018-08-31T05:20:55.031Z,1.63
2018-08-31T05:23:22.184Z,2.10
2018-08-31T05:25:49.144Z,2.33
2018-08-31T05:28:16.071Z,2.07
2018-08-31T05:30:43.120Z,2.00
2018-08-31T05:33:10.280Z,2.00
2018-08-31T05:35:37.322Z,1.90
2018-08-31T05:38:04.371Z,2.00
2018-08-31T05:40:31.308Z,1.93
2018-08-31T05:42:58.454Z,1.87
2018-08-31T05:45:25.560Z,1.80
2018-08-31T05:47:53.335Z,1.80
2018-08-31T05:50:21.212Z,1.70
2018-08-31T05:52:48.204Z,2.10
2018-08-31T05:55:15.923Z,1.77
2018-08-31T05:57:43.042Z,1.80
2018-08-31T06:00:10.178Z,1.70
2018-08-31T06:02:37.969Z,1.60
2018-08-31T06:05:05.044Z,1.60
2018-08-31T06:07:32.076Z,2.00
2018-08-31T06:09:59.218Z,1.87
2018-08-31T06:12:26.248Z,1.83
2018-08-31T06:14:53.197Z,1.93
2018-08-31T06:17:20.268Z,2.07
2018-08-31T06:19:48.128Z,1.90
2018-08-31T06:22:15.036Z,1.63
2018-08-31T06:24:57.056Z,1.87
2018-08-31T06:27:24.160Z,1.93
2018-08-31T06:29:51.148Z,1.63
2018-08-31T06:32:18.437Z,2.10
2018-08-31T06:34:46.168Z,1.97
2018-08-31T06:37:13.154Z,2.00
2018-08-31T06:39:41.061Z,1.60
2018-08-31T06:42:08.029Z,1.90
2018-08-31T06:44:35.761Z,1.98
2018-08-31T06:47:02.816Z,1.90
2018-08-31T06:49:29.858Z,1.70
2018-08-31T06:51:57.621Z,1.85
2018-08-31T06:54:24.608Z,1.80
2018-08-31T06:56:51.914Z,1.80
2018-08-31T06:59:34.047Z,1.80
2018-08-31T07:02:01.203Z,1.80
2018-08-31T07:04:28.383Z,2.03
2018-08-31T07:06:56.053Z,1.92
2018-08-31T07:09:23.913Z,2.10
2018-08-31T07:11:50.889Z,2.33
2018-08-31T07:14:17.864Z,2.10
2018-08-31T07:16:45.114Z,2.23
2018-08-31T07:19:12.128Z,1.87
2018-08-31T07:21:39.274Z,1.90
2018-08-31T07:24:06.774Z,2.10
2018-08-31T07:26:33.722Z,2.03
2018-08-31T07:29:00.654Z,2.05
2018-08-31T07:34:21.083Z,1.93
2018-08-31T07:36:48.157Z,1.58
2018-08-31T07:39:15.985Z,1.60
2018-08-31T07:41:42.984Z,1.60
2018-08-31T07:44:10.109Z,1.92
2018-08-31T07:46:45.555Z,1.70
2018-08-31T07:49:12.736Z,1.80
2018-08-31T07:51:40.592Z,2.00
2018-08-31T07:54:07.682Z,1.87
2018-08-31T07:56:34.724Z,1.70
2018-08-31T07:59:01.911Z,1.70
2018-08-31T08:01:29.016Z,1.40
2018-08-31T08:03:56.169Z,1.48
2018-08-31T08:06:24.111Z,1.80
2018-08-31T08:08:51.249Z,1.60
2018-08-31T08:11:18.386Z,1.83
2018-08-31T08:13:45.406Z,1.60
2018-08-31T08:16:12.391Z,1.60
2018-08-31T08:18:39.498Z,1.80
2018-08-31T08:21:21.485Z,1.80
2018-08-31T08:23:48.648Z,1.85
2018-08-31T08:26:15.667Z,1.83
2018-08-31T08:28:42.907Z,1.87
2018-08-31T08:31:09.897Z,1.65
2018-08-31T08:33:36.870Z,1.85
2018-08-31T08:36:04.384Z,1.50
2018-08-31T08:38:31.030Z,1.42
2018-08-31T08:40:57.680Z,1.62
2018-08-31T08:43:24.428Z,1.60
2018-08-31T08:45:51.120Z,1.33
2018-08-31T08:48:18.635Z,1.80
2018-08-31T08:50:45.306Z,1.60
2018-08-31T08:53:11.941Z,1.75
2018-08-31T08:55:38.759Z,1.70
2018-08-31T08:58:05.422Z,1.37
2018-08-31T09:00:32.828Z,1.62
2018-08-31T09:02:59.501Z,1.65
2018-08-31T09:05:26.968Z,1.70
2018-08-31T09:07:53.682Z,1.90
2018-08-31T09:10:20.348Z,1.70
2018-08-31T09:12:47.055Z,1.65
2018-08-31T09:15:13.886Z,1.70
2018-08-31T09:17:40.581Z,1.70
2018-08-31T09:20:07.234Z,1.77
2018-08-31T09:22:33.948Z,1.50
2018-08-31T09:25:00.582Z,1.80
2018-08-31T09:27:27.295Z,1.80
2018-08-31T09:29:54.004Z,1.40
2018-08-31T09:32:20.719Z,1.50
2018-08-31T09:34:48.212Z,1.45
2018-08-31T09:37:14.999Z,1.33
2018-08-31T09:39:41.698Z,1.70
2018-08-31T09:42:09.169Z,1.62
2018-08-31T09:44:35.797Z,1.73
2018-08-31T09:47:03.533Z,1.42
2018-08-31T09:49:30.503Z,1.50
2018-08-31T09:51:57.153Z,1.48
2018-08-31T09:54:23.884Z,1.60
2018-08-31T09:56:50.556Z,1.70
2018-08-31T09:59:17.228Z,1.65
2018-08-31T10:01:44.635Z,1.60
2018-08-31T10:04:11.314Z,1.27
2018-08-31T10:06:38.031Z,1.65
2018-08-31T10:09:04.788Z,1.42
2018-08-31T10:11:31.494Z,1.73
2018-08-31T10:13:58.936Z,1.50
2018-08-31T10:16:25.803Z,1.50
2018-08-31T10:18:52.478Z,1.65
2018-08-31T10:21:19.181Z,1.27
2018-08-31T10:23:45.831Z,1.40
2018-08-31T10:26:12.531Z,1.58
2018-08-31T10:28:39.383Z,1.48
2018-08-31T10:31:06.063Z,1.50
2018-08-31T10:33:32.759Z,1.70
2018-08-31T10:35:59.473Z,1.52
2018-08-31T10:38:26.885Z,1.58
2018-08-31T10:40:53.619Z,1.65
2018-08-31T10:43:20.297Z,1.45
2018-08-31T10:45:47.043Z,1.70
2018-08-31T10:48:14.469Z,1.60
2018-08-31T10:50:41.174Z,1.60
2018-08-31T10:53:07.830Z,1.40
2018-08-31T10:55:34.531Z,1.30
2018-08-31T10:58:01.233Z,1.70
2018-08-31T11:00:28.761Z,1.70
2018-08-31T11:02:55.467Z,1.85
2018-08-31T11:05:22.173Z,1.52
2018-08-31T11:07:48.865Z,1.50
2018-08-31T11:10:15.551Z,1.80
2018-08-31T11:12:42.386Z,1.55
2018-08-31T11:15:09.009Z,1.70
2018-08-31T11:17:35.703Z,1.60
2018-08-31T11:20:02.542Z,1.67
2018-08-31T11:22:29.939Z,1.55
2018-08-31T11:24:56.608Z,1.70
2018-08-31T11:27:23.435Z,1.70
2018-08-31T11:29:51.051Z,1.50
2018-08-31T11:32:17.925Z,1.35
2018-08-31T11:34:44.786Z,1.55
2018-08-31T11:37:11.471Z,1.40
2018-08-31T11:39:38.131Z,1.48
2018-08-31T11:42:04.814Z,1.50
2018-08-31T11:44:31.504Z,1.55
2018-08-31T11:46:58.168Z,1.42
2018-08-31T11:49:24.983Z,1.62
2018-08-31T11:51:51.666Z,1.55
2018-08-31T11:54:19.821Z,1.90
2018-08-31T11:56:46.603Z,1.55
2018-08-31T11:59:14.025Z,1.50
2018-08-31T12:01:40.714Z,2.00
2018-08-31T12:04:07.409Z,1.70
2018-08-31T12:06:34.045Z,1.58
2018-08-31T12:09:01.523Z,1.60
2018-08-31T12:11:28.352Z,1.60
2018-08-31T12:13:55.034Z,1.48
2018-08-31T12:16:21.779Z,1.70
2018-08-31T12:18:48.584Z,1.85
2018-08-31T12:21:15.264Z,1.80
2018-08-31T12:23:41.937Z,1.58
2018-08-31T12:26:08.623Z,1.70
2018-08-31T12:28:36.030Z,1.92
2018-08-31T12:31:02.719Z,1.62
2018-08-31T12:33:30.111Z,1.83
2018-08-31T12:35:57.647Z,1.90
2018-08-31T12:38:24.300Z,2.22
2018-08-31T12:40:51.439Z,1.77
2018-08-31T12:43:18.424Z,1.80
2018-08-31T12:45:45.227Z,2.10
2018-08-31T12:48:11.942Z,1.60
2018-08-31T12:50:39.384Z,1.80
2018-08-31T12:53:06.057Z,1.70
2018-08-31T12:55:32.887Z,1.62
2018-08-31T12:58:00.283Z,2.08
2018-08-31T13:00:26.978Z,1.95
2018-08-31T13:02:54.454Z,1.90
2018-08-31T13:05:21.326Z,1.67
2018-08-31T13:07:48.079Z,1.98
2018-08-31T13:10:15.691Z,1.87
2018-08-31T13:12:43.191Z,2.10
2018-08-31T13:15:09.877Z,1.65
2018-08-31T13:17:37.362Z,1.80
2018-08-31T13:20:04.166Z,1.80
2018-08-31T13:22:31.665Z,1.70
2018-08-31T13:24:58.411Z,1.80
2018-08-31T13:27:25.066Z,1.80
2018-08-31T13:29:51.754Z,1.90
2018-08-31T13:32:19.326Z,1.75
2018-08-31T13:34:45.976Z,1.95
2018-08-31T13:37:12.630Z,2.10
2018-08-31T13:39:39.290Z,1.90
2018-08-31T13:42:06.040Z,1.80
2018-08-31T13:44:32.754Z,2.03
2018-08-31T13:46:59.471Z,1.73
2018-08-31T13:49:26.159Z,2.10
2018-08-31T13:51:53.573Z,2.08
2018-08-31T13:54:20.297Z,2.20
2018-08-31T13:56:46.957Z,2.00
2018-08-31T13:59:13.610Z,2.05
2018-08-31T14:01:40.430Z,2.20
2018-08-31T14:04:07.190Z,2.00
2018-08-31T14:06:33.843Z,1.73
2018-08-31T14:09:00.613Z,2.00
2018-08-31T14:11:27.302Z,1.73
2018-08-31T14:13:53.938Z,2.17
2018-08-31T14:16:20.679Z,2.10
2018-08-31T14:18:47.376Z,2.05
2018-08-31T14:21:14.862Z,1.80
2018-08-31T14:23:41.579Z,1.80
2018-08-31T14:26:08.341Z,2.10
2018-08-31T14:28:35.042Z,1.90
2018-08-31T14:31:01.736Z,1.90
2018-08-31T14:33:28.419Z,1.95
2018-08-31T14:35:55.871Z,1.75
2018-08-31T14:38:22.597Z,1.80
2018-08-31T14:40:49.236Z,1.80
2018-08-31T14:43:15.972Z,1.93
2018-08-31T14:45:42.591Z,2.03
2018-08-31T14:48:09.281Z,2.13
2018-08-31T14:50:36.727Z,2.17
2018-08-31T14:53:03.455Z,2.30
2018-08-31T14:55:30.149Z,1.73
2018-08-31T14:57:56.970Z,2.28
2018-08-31T15:00:24.328Z,2.30
2018-08-31T15:02:51.716Z,1.80
2018-08-31T15:05:18.375Z,1.87
2018-08-31T15:07:45.066Z,2.00
2018-08-31T15:10:12.499Z,2.03
2018-08-31T15:12:39.194Z,1.97
2018-08-31T15:15:05.930Z,1.83
2018-08-31T15:17:49.220Z,2.27
2018-08-31T15:20:16.728Z,1.90
2018-08-31T15:22:43.435Z,2.10
2018-08-31T15:25:10.908Z,2.30
2018-08-31T15:27:37.772Z,2.40
2018-08-31T15:30:04.513Z,2.10
2018-08-31T15:32:31.195Z,1.93
2018-08-31T15:34:58.638Z,2.10
2018-08-31T15:37:26.053Z,2.07
2018-08-31T15:39:52.946Z,2.40
2018-08-31T15:42:20.533Z,2.53
2018-08-31T15:44:47.195Z,2.30
2018-08-31T15:47:13.876Z,2.15
2018-08-31T15:49:40.614Z,2.80
2018-08-31T15:52:07.456Z,2.70
2018-08-31T15:54:34.921Z,2.40
2018-08-31T15:57:01.598Z,2.63
2018-08-31T15:59:28.488Z,2.63
2018-08-31T16:01:55.114Z,2.37
2018-08-31T16:04:21.843Z,2.40
2018-08-31T16:06:48.511Z,2.62
2018-08-31T16:09:15.320Z,2.50
2018-08-31T16:11:42.023Z,2.60
2018-08-31T16:14:09.866Z,3.07
2018-08-31T16:16:37.326Z,2.70
2018-08-31T16:19:04.953Z,3.10
2018-08-31T16:21:31.591Z,2.85
2018-08-31T16:23:59.029Z,2.60
2018-08-31T16:26:25.657Z,3.30
2018-08-31T16:28:52.476Z,2.90
2018-08-31T16:31:19.134Z,3.00
2018-08-31T16:33:46.146Z,2.93
2018-08-31T16:36:13.934Z,2.90
2018-08-31T16:38:40.688Z,3.07
2018-08-31T16:41:07.355Z,2.80
2018-08-31T16:43:34.629Z,3.03
2018-08-31T16:46:01.455Z,3.03
2018-08-31T16:48:28.244Z,3.13
2018-08-31T16:50:55.529Z,3.37
2018-08-31T16:53:22.298Z,3.40
2018-08-31T16:55:51.988Z,3.20
2018-08-31T16:58:18.644Z,3.17
2018-08-31T17:00:45.434Z,3.57
2018-08-31T17:03:12.125Z,3.20
2018-08-31T17:05:38.747Z,3.00
2018-08-31T17:08:05.591Z,3.47
2018-08-31T17:10:32.268Z,3.57
2018-08-31T17:12:59.739Z,3.20
2018-08-31T17:15:27.288Z,3.43
2018-08-31T17:18:09.160Z,3.67
2018-08-31T17:20:36.045Z,3.50
2018-08-31T17:23:02.847Z,3.90
2018-08-31T17:25:29.603Z,3.57
2018-08-31T17:30:52.475Z,4.03
2018-08-31T17:33:34.162Z,3.70
2018-08-31T17:36:20.771Z,3.37
2018-08-31T17:38:48.494Z,3.70
2018-08-31T17:41:16.034Z,3.47
2018-08-31T17:43:43.219Z,3.90
2018-08-31T17:46:10.215Z,3.60
2018-08-31T17:48:37.017Z,3.60
2018-08-31T17:51:03.718Z,3.20
2018-08-31T17:53:30.439Z,3.43
2018-08-31T17:55:57.136Z,3.10
2018-08-31T17:58:30.762Z,3.13
2018-08-31T18:00:57.495Z,3.27
2018-08-31T18:03:24.571Z,3.00
2018-08-31T18:05:51.515Z,3.10
2018-08-31T18:08:18.196Z,2.73
2018-08-31T18:10:44.929Z,2.50
2018-08-31T18:13:11.617Z,2.70
2018-08-31T18:15:39.329Z,2.53
2018-08-31T18:18:06.854Z,2.40
2018-08-31T18:20:33.555Z,2.80
2018-08-31T18:23:00.215Z,2.60
2018-08-31T18:25:26.980Z,2.67
2018-08-31T18:27:53.696Z,2.50
2018-08-31T18:30:20.488Z,2.27
2018-08-31T18:32:47.293Z,2.47
2018-08-31T18:35:14.019Z,2.57
2018-08-31T18:37:41.444Z,2.37
2018-08-31T18:40:08.572Z,2.23
2018-08-31T18:42:35.239Z,2.57
2018-08-31T18:45:02.139Z,2.60
2018-08-31T18:47:30.030Z,2.30
2018-08-31T18:49:56.768Z,2.37
2018-08-31T18:52:23.857Z,2.00
2018-08-31T18:54:51.297Z,2.47
2018-08-31T18:57:18.751Z,2.70
2018-08-31T18:59:45.675Z,2.27
2018-08-31T19:02:12.511Z,2.30
2018-08-31T19:04:39.179Z,2.10
2018-08-31T19:07:06.676Z,2.30
2018-08-31T19:09:34.150Z,2.03
2018-08-31T19:12:00.919Z,2.40
2018-08-31T19:14:27.694Z,2.50
2018-08-31T19:16:55.122Z,2.10
2018-08-31T19:19:21.901Z,2.50
2018-08-31T19:21:48.850Z,2.13
2018-08-31T19:24:16.258Z,2.33
2018-08-31T19:26:44.066Z,2.20
2018-08-31T19:29:11.701Z,2.53
2018-08-31T19:31:38.564Z,2.20
2018-08-31T19:34:05.369Z,2.40
2018-08-31T19:36:32.036Z,2.30
2018-08-31T19:38:59.538Z,2.30
2018-08-31T19:41:27.186Z,2.30
2018-08-31T19:43:54.075Z,2.43
2018-08-31T19:46:21.036Z,2.30
2018-08-31T19:48:47.719Z,2.37
2018-08-31T19:51:14.824Z,2.30
2018-08-31T19:53:41.623Z,2.27
2018-08-31T19:56:09.327Z,2.40
2018-08-31T19:58:36.136Z,2.17
2018-08-31T20:01:02.840Z,2.30
2018-08-31T20:03:30.247Z,2.20
2018-08-31T20:06:00.750Z,2.00
2018-08-31T20:08:27.606Z,2.27
2018-08-31T20:10:56.406Z,1.93
2018-08-31T20:13:23.198Z,2.43
2018-08-31T20:15:49.916Z,2.20
2018-08-31T20:18:17.581Z,2.20
2018-08-31T20:20:44.420Z,2.13
2018-08-31T20:23:11.141Z,2.00
2018-08-31T20:25:37.775Z,2.10
2018-08-31T20:28:04.538Z,2.33
2018-08-31T20:30:31.191Z,2.50
2018-08-31T20:32:57.843Z,2.00
2018-08-31T20:35:25.382Z,2.43
2018-08-31T20:37:52.773Z,2.30
2018-08-31T20:40:19.532Z,2.30
2018-08-31T20:42:46.859Z,2.20
2018-08-31T20:45:13.859Z,2.03
2018-08-31T20:47:42.399Z,2.20
2018-08-31T20:50:09.570Z,2.20
2018-08-31T20:52:36.230Z,2.07
2018-08-31T20:55:03.167Z,2.10
2018-08-31T20:57:30.056Z,1.90
2018-08-31T20:59:57.458Z,2.30
2018-08-31T21:02:24.319Z,2.20
2018-08-31T21:04:50.977Z,1.90
2018-08-31T21:07:17.620Z,2.27
2018-08-31T21:09:45.104Z,2.03
2018-08-31T21:12:11.851Z,2.10
2018-08-31T21:14:38.657Z,2.13
2018-08-31T21:17:05.418Z,2.00
2018-08-31T21:19:32.183Z,2.20
2018-08-31T21:21:58.855Z,2.00
2018-08-31T21:24:25.518Z,2.07
2018-08-31T21:26:53.070Z,2.20
2018-08-31T21:29:20.466Z,2.00
2018-08-31T21:31:47.121Z,2.10
2018-08-31T21:34:13.861Z,1.63
2018-08-31T21:36:40.543Z,2.00
2018-08-31T21:39:07.273Z,2.00
2018-08-31T21:41:33.916Z,2.30
2018-08-31T21:44:01.319Z,2.10
2018-08-31T21:46:28.040Z,2.50
2018-08-31T21:48:55.446Z,2.37
2018-08-31T21:51:22.160Z,3.00
2018-08-31T21:53:48.885Z,2.20
2018-08-31T21:56:15.522Z,2.10
2018-08-31T21:58:42.203Z,2.37
2018-08-31T22:01:08.975Z,2.17
2018-08-31T22:03:36.423Z,2.03
2018-08-31T22:06:03.119Z,1.70
2018-08-31T22:08:29.826Z,2.30
2018-08-31T22:10:57.225Z,1.93
2018-08-31T22:13:23.917Z,1.80
2018-08-31T22:15:51.343Z,2.03
2018-08-31T22:18:18.080Z,1.77
2018-08-31T22:20:45.636Z,2.47
2018-08-31T22:23:12.350Z,2.27
2018-08-31T22:25:39.020Z,1.90
2018-08-31T22:28:05.782Z,2.30
2018-08-31T22:30:32.444Z,2.27
2018-08-31T22:32:59.946Z,2.30
2018-08-31T22:35:27.443Z,2.20
2018-08-31T22:37:54.168Z,2.10
2018-08-31T22:40:20.868Z,2.30
2018-08-31T22:42:47.540Z,1.77
2018-08-31T22:45:14.390Z,1.97
2018-08-31T22:47:41.074Z,1.77
2018-08-31T22:50:07.717Z,2.23
2018-08-31T22:52:34.441Z,1.87
2018-08-31T22:55:01.147Z,1.70
2018-08-31T22:57:27.794Z,1.80
2018-08-31T22:59:54.505Z,1.60
2018-08-31T23:02:21.198Z,1.93
2018-08-31T23:04:47.921Z,1.80
2018-08-31T23:07:15.388Z,1.80
2018-08-31T23:09:42.878Z,2.00
2018-08-31T23:12:09.537Z,2.00
2018-08-31T23:14:36.159Z,1.57
2018-08-31T23:17:02.921Z,1.93
2018-08-31T23:19:29.658Z,1.60
2018-08-31T23:21:57.100Z,1.60
2018-08-31T23:24:23.752Z,2.20
2018-08-31T23:26:50.436Z,1.50
2018-08-31T23:29:17.994Z,1.63
2018-08-31T23:31:45.547Z,1.77
2018-08-31T23:34:12.938Z,1.40
2018-08-31T23:36:39.630Z,1.73
2018-08-31T23:39:06.306Z,1.63
2018-08-31T23:41:33.022Z,1.50
2018-08-31T23:44:00.404Z,1.70
2018-08-31T23:46:27.037Z,1.40
2018-08-31T23:49:08.752Z,1.63
2018-08-31T23:51:35.410Z,1.57
2018-08-31T23:54:02.089Z,1.60
2018-08-31T23:56:29.503Z,1.40
2018-08-31T23:58:56.215Z,1.50
